createdAt,value
2022-10-05T17:52:44.910Z,99903.59
2022-10-05T17:58:26.181Z,99909.72
2022-10-05T18:03:51.749Z,99913.56
2022-10-05T18:09:22.604Z,99909.38
2022-10-05T18:14:58.892Z,99919.91
2022-10-05T18:20:29.742Z,99918.28
2022-10-05T18:25:57.289Z,99911.38
2022-10-05T18:31:52.698Z,99921.19
2022-10-05T18:37:31.796Z,99926.91
2022-10-05T18:43:19.005Z,99936.50
2022-10-05T18:49:18.224Z,99939.09
2022-10-05T18:54:51.424Z,99937.91
2022-10-05T19:00:22.463Z,99948.16
2022-10-05T19:06:13.202Z,99949.09
2022-10-05T19:11:52.161Z,99953.56
2022-10-05T19:17:40.917Z,99950.13
2022-10-05T19:23:22.292Z,99953.47
2022-10-05T19:29:27.364Z,99952.91
2022-10-05T19:35:26.273Z,99956.72
2022-10-05T19:41:06.136Z,99950.88
2022-10-05T19:47:00.724Z,99956.38
2022-10-05T19:52:47.684Z,99960.16
2022-10-05T19:58:25.190Z,99958.47
2022-10-05T20:03:48.070Z,99951.84
2022-10-05T20:09:20.943Z,99954.00
2022-10-05T20:15:05.411Z,99941.28
2022-10-05T20:20:45.821Z,99947.41
2022-10-05T20:26:58.680Z,99949.22
2022-10-05T20:32:20.221Z,99951.53
2022-10-05T20:37:42.976Z,99948.59
2022-10-05T20:43:04.539Z,99938.72
2022-10-05T20:48:26.469Z,99952.50
2022-10-05T20:53:48.404Z,99947.09
2022-10-05T20:59:09.915Z,99946.13
2022-10-05T21:04:40.819Z,99956.53
2022-10-05T21:10:03.932Z,99956.66
2022-10-05T21:15:25.898Z,99964.44
2022-10-05T21:20:50.195Z,99966.31
2022-10-05T21:26:12.279Z,99963.66
2022-10-05T21:31:34.285Z,99967.31
2022-10-05T21:36:55.782Z,99969.63
2022-10-05T21:42:17.303Z,99968.53
2022-10-05T21:47:39.313Z,99965.47
2022-10-05T21:53:03.274Z,99975.19
2022-10-05T21:58:27.614Z,99978.31
2022-10-05T22:10:42.934Z,99990.09
2022-10-05T22:16:05.547Z,99993.59
2022-10-05T22:21:26.889Z,99985.78
2022-10-05T22:26:51.779Z,99988.25
2022-10-05T22:32:13.386Z,99989.97
2022-10-05T22:37:38.129Z,99991.78
2022-10-05T22:42:59.687Z,100002.97
2022-10-05T22:48:21.363Z,99997.59
2022-10-05T22:53:43.069Z,99993.28
2022-10-05T22:59:04.791Z,99988.28
2022-10-05T23:04:26.346Z,100001.31
2022-10-05T23:09:48.126Z,99998.78
2022-10-05T23:15:11.135Z,99995.47
2022-10-05T23:20:32.736Z,99992.97
2022-10-05T23:26:00.315Z,99994.34
2022-10-05T23:31:24.455Z,99989.25
2022-10-05T23:36:45.850Z,99995.22
2022-10-05T23:42:07.498Z,99997.66
2022-10-05T23:47:29.145Z,99990.81
2022-10-05T23:52:50.665Z,100003.00
2022-10-05T23:58:12.696Z,100008.94
